createdAt,value
2022-11-19T00:00:33.188Z,2.73
2022-11-19T00:03:04.266Z,3.63
2022-11-19T00:05:35.002Z,2.72
2022-11-19T00:08:11.234Z,4.17
2022-11-19T00:10:46.305Z,3.80
2022-11-19T00:13:15.916Z,3.20
2022-11-19T00:18:30.176Z,2.77
2022-11-19T00:21:15.860Z,3.70
2022-11-19T00:23:52.467Z,2.60
2022-11-19T00:26:24.777Z,2.63
2022-11-19T00:29:02.374Z,3.50
2022-11-19T00:31:42.267Z,3.50
2022-11-19T00:34:21.188Z,3.30
2022-11-19T00:36:51.520Z,3.03
2022-11-19T00:39:24.954Z,2.40
2022-11-19T00:41:55.275Z,2.93
2022-11-19T00:44:37.413Z,3.65
2022-11-19T00:47:15.662Z,2.63
2022-11-19T00:49:49.815Z,2.77
2022-11-19T00:52:35.210Z,3.33
2022-11-19T00:55:05.856Z,2.87
2022-11-19T00:57:36.327Z,2.33
2022-11-19T01:00:07.397Z,3.17
2022-11-19T01:02:37.767Z,2.88
2022-11-19T01:05:08.736Z,3.70
2022-11-19T01:07:44.988Z,3.42
2022-11-19T01:10:31.081Z,2.53
2022-11-19T01:13:18.918Z,2.63
2022-11-19T01:15:56.899Z,2.93
2022-11-19T01:18:39.134Z,3.23
2022-11-19T01:21:11.613Z,3.30
2022-11-19T01:23:49.939Z,3.83
2022-11-19T01:26:31.462Z,2.37
2022-11-19T01:29:02.123Z,2.55
2022-11-19T01:31:39.029Z,3.53
2022-11-19T01:34:09.583Z,3.03
2022-11-19T01:36:45.690Z,3.40
2022-11-19T01:39:16.476Z,2.60
2022-11-19T01:41:47.063Z,3.30
2022-11-19T01:45:07.189Z,2.40
2022-11-19T01:47:37.636Z,2.87
2022-11-19T01:50:10.071Z,2.10
2022-11-19T01:52:47.850Z,3.17
2022-11-19T01:55:16.836Z,2.87
2022-11-19T01:57:53.671Z,3.23
2022-11-19T02:00:25.892Z,2.93
2022-11-19T02:03:05.756Z,2.73
2022-11-19T02:05:37.826Z,3.53
2022-11-19T02:08:20.030Z,2.70
2022-11-19T02:11:22.050Z,2.63
2022-11-19T02:14:34.644Z,2.77
2022-11-19T02:17:30.691Z,3.50
2022-11-19T02:20:38.476Z,2.97
2022-11-19T02:23:46.409Z,3.10
2022-11-19T02:26:47.012Z,3.90
2022-11-19T02:29:55.114Z,2.60
2022-11-19T02:32:47.280Z,3.10
2022-11-19T02:35:34.771Z,4.80
2022-11-19T02:38:19.424Z,3.70
2022-11-19T02:41:23.736Z,3.20
2022-11-19T02:44:25.781Z,2.27
2022-11-19T02:47:05.796Z,2.27
2022-11-19T02:49:46.277Z,2.27
2022-11-19T02:52:29.625Z,2.60
2022-11-19T02:54:59.860Z,2.37
2022-11-19T02:57:36.231Z,2.67
2022-11-19T03:00:29.551Z,2.87
2022-11-19T03:03:27.854Z,3.10
2022-11-19T03:06:12.965Z,2.60
2022-11-19T03:08:44.136Z,2.73
2022-11-19T03:11:27.243Z,2.38
2022-11-19T03:14:42.198Z,2.40
2022-11-19T03:17:37.338Z,1.37
2022-11-19T03:20:22.729Z,2.20
2022-11-19T03:22:58.709Z,3.43
2022-11-19T03:25:47.927Z,3.23
2022-11-19T03:28:26.996Z,2.37
2022-11-19T03:30:58.116Z,2.77
2022-11-19T03:33:50.629Z,3.88
2022-11-19T03:36:36.950Z,3.00
2022-11-19T03:39:13.407Z,2.47
2022-11-19T03:41:51.873Z,2.33
2022-11-19T03:44:39.040Z,2.70
2022-11-19T03:47:18.974Z,3.67
2022-11-19T03:49:57.979Z,4.07
2022-11-19T03:52:28.206Z,3.03
2022-11-19T03:54:58.962Z,4.03
2022-11-19T03:57:39.753Z,2.97
2022-11-19T04:00:11.695Z,2.47
2022-11-19T04:02:47.472Z,2.40
2022-11-19T04:05:19.112Z,3.42
2022-11-19T04:07:55.521Z,2.72
2022-11-19T04:10:23.729Z,2.70
2022-11-19T04:13:02.029Z,2.30
2022-11-19T04:15:42.287Z,3.03
2022-11-19T04:18:12.931Z,2.00
2022-11-19T04:20:43.541Z,3.03
2022-11-19T04:23:21.368Z,2.40
2022-11-19T04:25:51.086Z,2.00
2022-11-19T04:28:22.079Z,2.27
2022-11-19T04:30:52.344Z,1.95
2022-11-19T04:33:26.013Z,2.13
2022-11-19T04:38:42.940Z,3.10
2022-11-19T04:41:13.907Z,3.60
2022-11-19T04:43:45.642Z,3.00
2022-11-19T04:46:22.994Z,3.03
2022-11-19T04:48:56.739Z,2.37
2022-11-19T04:54:17.537Z,2.67
2022-11-19T04:56:45.894Z,2.70
2022-11-19T04:59:16.836Z,2.77
2022-11-19T05:01:58.823Z,2.17
2022-11-19T05:04:41.884Z,3.08
2022-11-19T05:07:12.722Z,1.73
2022-11-19T05:09:44.765Z,2.10
2022-11-19T05:14:57.084Z,1.07
2022-11-19T05:17:31.477Z,2.10
2022-11-19T05:20:02.912Z,1.93
2022-11-19T05:22:33.442Z,2.05
2022-11-19T05:25:06.283Z,1.70
2022-11-19T05:27:37.191Z,2.30
2022-11-19T05:30:15.442Z,2.73
2022-11-19T05:32:50.038Z,2.00
2022-11-19T05:35:19.354Z,1.87
2022-11-19T05:37:59.759Z,2.90
2022-11-19T05:40:28.756Z,1.77
2022-11-19T05:43:06.634Z,1.73
2022-11-19T05:45:36.146Z,2.20
2022-11-19T05:48:07.176Z,1.63
2022-11-19T05:50:53.976Z,2.42
2022-11-19T05:53:22.998Z,2.40
2022-11-19T05:58:37.503Z,1.90
2022-11-19T06:04:01.413Z,1.33
2022-11-19T06:06:36.694Z,2.10
2022-11-19T06:09:06.849Z,2.43
2022-11-19T06:11:56.234Z,2.57
2022-11-19T06:14:26.914Z,1.97
2022-11-19T06:17:01.674Z,1.80
2022-11-19T06:19:32.132Z,2.20
2022-11-19T06:22:02.806Z,1.53
2022-11-19T06:24:36.373Z,2.23
2022-11-19T06:27:06.417Z,1.90
2022-11-19T06:29:36.648Z,2.20
2022-11-19T06:32:17.763Z,1.77
2022-11-19T06:34:55.017Z,3.35
2022-11-19T06:37:24.106Z,2.47
2022-11-19T06:40:05.000Z,2.40
2022-11-19T06:42:46.097Z,2.40
2022-11-19T06:45:28.579Z,2.13
2022-11-19T06:48:13.329Z,1.60
2022-11-19T06:50:50.193Z,1.50
2022-11-19T06:53:27.475Z,2.50
2022-11-19T06:56:10.305Z,1.70
2022-11-19T06:58:47.352Z,2.37
2022-11-19T07:01:18.048Z,2.43
2022-11-19T07:03:48.957Z,2.30
2022-11-19T09:08:49.955Z,3.20
2022-11-19T09:11:19.715Z,3.07
2022-11-19T09:13:48.020Z,3.20
2022-11-19T09:16:16.264Z,3.63
2022-11-19T09:18:46.800Z,2.17
2022-11-19T09:21:14.518Z,2.20
2022-11-19T09:23:42.765Z,3.07
2022-11-19T09:26:16.574Z,3.20
2022-11-19T09:28:44.847Z,3.23
2022-11-19T09:31:18.286Z,3.40
2022-11-19T09:33:51.673Z,4.90
2022-11-19T09:36:20.564Z,2.97
2022-11-19T09:38:49.182Z,1.60
2022-11-19T09:41:43.450Z,2.40
2022-11-19T09:44:55.455Z,2.80
2022-11-19T09:48:07.593Z,2.67
2022-11-19T09:50:50.363Z,4.53
2022-11-19T09:53:23.411Z,2.77
2022-11-19T09:55:54.699Z,2.40
2022-11-19T09:58:37.780Z,3.40
2022-11-19T10:01:08.406Z,3.83
2022-11-19T10:03:36.112Z,3.20
2022-11-19T10:06:19.414Z,4.47
2022-11-19T10:09:14.040Z,2.93
2022-11-19T10:11:44.529Z,2.93
2022-11-19T10:14:36.552Z,2.90
2022-11-19T10:17:38.407Z,4.10
2022-11-19T10:20:28.175Z,3.95
2022-11-19T10:23:23.007Z,2.90
2022-11-19T10:25:55.209Z,3.50
2022-11-19T10:28:29.195Z,3.77
2022-11-19T10:31:26.087Z,2.93
2022-11-19T10:34:08.659Z,2.93
2022-11-19T10:36:44.251Z,3.57
2022-11-19T10:39:17.247Z,4.33
2022-11-19T10:41:54.520Z,3.20
2022-11-19T10:44:41.320Z,3.10
2022-11-19T10:47:20.313Z,2.37
2022-11-19T10:49:53.505Z,2.93
2022-11-19T10:52:32.132Z,2.77
2022-11-19T10:55:29.067Z,2.70
2022-11-19T10:58:23.999Z,2.43
2022-11-19T11:00:55.404Z,2.53
2022-11-19T11:03:39.200Z,3.75
2022-11-19T11:06:10.156Z,3.73
2022-11-19T11:08:55.209Z,3.90
2022-11-19T11:11:46.198Z,3.23
2022-11-19T11:14:33.510Z,3.90
2022-11-19T11:17:01.375Z,2.53
2022-11-19T11:19:30.414Z,2.67
2022-11-19T11:21:58.759Z,3.50
2022-11-19T11:24:39.094Z,2.30
2022-11-19T11:27:24.615Z,2.43
2022-11-19T11:30:06.208Z,2.50
2022-11-19T11:32:34.265Z,2.05
2022-11-19T11:35:06.942Z,2.90
2022-11-19T11:37:36.629Z,2.43
2022-11-19T11:40:05.114Z,3.27
2022-11-19T11:42:52.821Z,4.43
2022-11-19T11:45:31.901Z,2.87
2022-11-19T11:48:06.679Z,3.27
2022-11-19T11:50:36.613Z,2.43
2022-11-19T11:53:10.168Z,2.33
2022-11-19T11:55:38.726Z,1.63
2022-11-19T11:58:25.090Z,1.97
2022-11-19T12:00:56.355Z,2.47
2022-11-19T12:03:24.146Z,2.28
2022-11-19T12:06:09.889Z,2.77
2022-11-19T12:08:58.757Z,2.63
2022-11-19T12:11:58.094Z,3.30
2022-11-19T12:14:28.625Z,3.70
2022-11-19T12:17:02.123Z,3.80
2022-11-19T12:19:48.062Z,3.93
2022-11-19T12:22:21.666Z,3.00
2022-11-19T12:25:08.022Z,3.43
2022-11-19T12:28:08.066Z,2.27
2022-11-19T12:30:51.060Z,2.63
2022-11-19T12:33:48.152Z,2.03
2022-11-19T12:36:52.272Z,2.70
2022-11-19T12:39:36.680Z,4.03
2022-11-19T12:42:23.711Z,3.33
2022-11-19T12:45:18.489Z,2.70
2022-11-19T12:48:16.312Z,3.80
2022-11-19T12:51:13.928Z,2.37
2022-11-19T12:54:33.466Z,2.57
2022-11-19T12:57:36.652Z,2.93
2022-11-19T13:00:25.322Z,3.65
2022-11-19T13:03:10.467Z,3.70
2022-11-19T13:05:59.587Z,2.93
2022-11-19T13:08:47.053Z,2.97
2022-11-19T13:11:41.933Z,3.13
2022-11-19T13:14:23.143Z,2.93
2022-11-19T13:16:52.932Z,3.20
2022-11-19T13:19:26.057Z,4.00
2022-11-19T13:21:59.245Z,2.63
2022-11-19T13:24:27.137Z,2.37
2022-11-19T13:26:57.319Z,3.43
2022-11-19T13:29:38.579Z,4.07
2022-11-19T13:32:17.053Z,1.73
2022-11-19T13:34:59.987Z,4.47
2022-11-19T13:37:58.550Z,3.23
2022-11-19T13:40:42.794Z,2.30
2022-11-19T13:43:32.970Z,3.20
2022-11-19T13:46:19.393Z,7.87
2022-11-19T13:48:59.986Z,2.70
2022-11-19T13:51:33.573Z,3.60
2022-11-19T13:54:03.753Z,3.80
2022-11-19T13:56:47.966Z,3.53
2022-11-19T13:59:39.919Z,3.60
2022-11-19T14:02:39.666Z,3.05
2022-11-19T14:05:30.255Z,4.20
2022-11-19T14:08:06.975Z,2.60
2022-11-19T14:10:56.542Z,2.30
2022-11-19T14:13:41.761Z,3.57
2022-11-19T14:16:37.755Z,2.90
2022-11-19T14:19:29.332Z,1.87
2022-11-19T14:22:14.825Z,1.55
2022-11-19T14:25:06.209Z,1.57
2022-11-19T14:27:35.656Z,1.67
2022-11-19T14:30:03.299Z,2.20
2022-11-19T14:32:49.637Z,2.37
2022-11-19T14:35:23.383Z,1.60
2022-11-19T14:38:16.842Z,1.30
2022-11-19T14:40:45.557Z,1.47
2022-11-19T14:43:30.596Z,2.00
2022-11-19T14:46:04.445Z,1.67
2022-11-19T14:48:48.206Z,1.90
2022-11-19T14:51:19.053Z,1.57
2022-11-19T14:53:53.897Z,1.03
2022-11-19T14:56:23.899Z,1.00
2022-11-19T14:59:18.051Z,0.33
2022-11-19T15:02:10.369Z,0.83
2022-11-19T15:04:41.937Z,0.40
2022-11-19T15:07:13.133Z,0.20
2022-11-19T15:09:53.821Z,0.60
2022-11-19T15:12:22.778Z,0.60
2022-11-19T15:15:08.436Z,1.07
2022-11-19T15:17:36.582Z,0.60
2022-11-19T15:20:49.310Z,0.20
2022-11-19T15:23:46.273Z,0.60
2022-11-19T15:26:35.927Z,0.40
2022-11-19T15:29:28.513Z,0.30
2022-11-19T15:32:17.719Z,1.00
2022-11-19T15:35:10.413Z,0.83
2022-11-19T15:37:52.091Z,0.50
2022-11-19T15:40:24.211Z,0.73
2022-11-19T15:43:00.477Z,0.60
2022-11-19T15:45:32.177Z,0.60
2022-11-19T15:48:14.234Z,0.70
2022-11-19T15:53:19.133Z,0.57
2022-11-19T15:55:49.745Z,0.67
2022-11-19T15:58:21.512Z,0.93
2022-11-19T16:00:51.551Z,1.85
2022-11-19T16:03:20.629Z,2.10
2022-11-19T16:06:11.040Z,1.57
2022-11-19T16:08:39.079Z,2.20
2022-11-19T16:11:27.321Z,0.90
2022-11-19T16:14:27.326Z,1.27
2022-11-19T16:17:29.336Z,1.17
2022-11-19T16:20:05.969Z,1.50
2022-11-19T16:22:37.386Z,0.40
2022-11-19T16:25:12.929Z,0.50
2022-11-19T16:27:43.896Z,1.07
2022-11-19T16:30:20.257Z,1.33
2022-11-19T16:32:49.279Z,1.77
2022-11-19T16:35:24.700Z,1.07
2022-11-19T16:37:54.496Z,0.93
2022-11-19T16:40:23.506Z,1.40
2022-11-19T16:42:59.738Z,0.70
2022-11-19T16:45:29.712Z,0.67
2022-11-19T16:48:02.817Z,0.63
2022-11-19T16:50:46.410Z,1.27
2022-11-19T16:53:47.261Z,0.50
2022-11-19T16:56:17.522Z,0.77
2022-11-19T16:58:46.971Z,1.20
2022-11-19T17:01:19.196Z,1.13
2022-11-19T17:03:47.076Z,1.13
2022-11-19T17:06:25.675Z,0.93
2022-11-19T17:08:58.816Z,0.40
2022-11-19T17:12:05.320Z,0.40
2022-11-19T17:14:36.092Z,0.60
2022-11-19T17:17:04.785Z,0.30
2022-11-19T17:19:38.252Z,0.50
2022-11-19T17:22:19.571Z,0.50
2022-11-19T17:24:47.621Z,0.85
2022-11-19T17:27:29.166Z,0.60
2022-11-19T17:30:02.846Z,0.20
2022-11-19T17:32:48.992Z,0.90
2022-11-19T17:35:35.297Z,1.13
2022-11-19T17:38:27.071Z,0.53
2022-11-19T17:40:57.578Z,0.65
2022-11-19T17:43:44.231Z,0.53
2022-11-19T17:46:11.931Z,0.40
2022-11-19T17:48:42.428Z,1.60
2022-11-19T17:51:14.460Z,7.17
2022-11-19T17:53:42.327Z,3.47
2022-11-19T17:56:20.298Z,4.33
2022-11-19T17:58:51.281Z,3.00
2022-11-19T18:01:19.570Z,1.10
2022-11-19T18:03:47.792Z,1.27
2022-11-19T18:06:17.289Z,1.23
2022-11-19T18:08:45.920Z,1.40
2022-11-19T18:11:16.875Z,1.10
2022-11-19T18:13:45.609Z,1.30
2022-11-19T18:16:22.206Z,0.83
2022-11-19T18:18:50.512Z,0.80
2022-11-19T18:21:21.183Z,1.23
2022-11-19T18:23:50.756Z,0.90
2022-11-19T18:26:22.302Z,0.50
2022-11-19T18:28:50.155Z,1.10
2022-11-19T18:31:24.383Z,1.00
2022-11-19T18:33:52.166Z,1.00
2022-11-19T18:36:20.086Z,0.77
2022-11-19T18:38:48.044Z,0.60
2022-11-19T18:41:18.894Z,0.57
2022-11-19T18:44:04.745Z,0.87
2022-11-19T18:46:32.594Z,0.40
2022-11-19T18:49:00.344Z,0.70
2022-11-19T18:51:31.260Z,1.10
2022-11-19T18:53:59.139Z,1.00
2022-11-19T18:56:27.096Z,4.30
2022-11-19T18:58:54.920Z,4.27
2022-11-19T19:01:24.030Z,1.17
2022-11-19T19:03:53.226Z,0.63
2022-11-19T19:06:23.132Z,1.00
2022-11-19T19:08:51.502Z,1.13
2022-11-19T19:11:36.771Z,0.90
2022-11-19T19:14:05.038Z,0.93
2022-11-19T19:16:34.237Z,0.57
2022-11-19T19:19:03.450Z,0.43
2022-11-19T19:21:31.505Z,0.83
2022-11-19T19:23:59.391Z,0.67
2022-11-19T19:26:27.072Z,0.30
2022-11-19T19:28:55.736Z,0.47
2022-11-19T19:31:24.513Z,1.70
2022-11-19T19:33:53.048Z,0.30
2022-11-19T19:36:22.793Z,0.90
2022-11-19T19:38:50.979Z,0.30
2022-11-19T19:41:23.413Z,0.50
2022-11-19T19:43:51.390Z,0.27
2022-11-19T19:46:21.041Z,0.20
2022-11-19T19:48:51.658Z,0.67
2022-11-19T19:51:20.753Z,0.37
2022-11-19T19:53:49.664Z,0.97
2022-11-19T19:56:21.095Z,0.10
2022-11-19T19:58:52.942Z,0.30
2022-11-19T20:03:54.312Z,0.50
2022-11-19T20:06:25.107Z,0.10
2022-11-19T20:08:53.053Z,0.30
2022-11-19T20:11:24.653Z,0.90
2022-11-19T20:13:54.088Z,0.40
2022-11-19T20:16:27.089Z,0.40
2022-11-19T20:18:55.819Z,0.20
2022-11-19T20:21:36.140Z,0.37
2022-11-19T20:24:11.488Z,0.30
2022-11-19T20:26:44.209Z,0.40
2022-11-19T20:31:41.481Z,0.10
2022-11-19T20:34:09.211Z,0.00
2022-11-19T20:36:37.602Z,0.10
2022-11-19T20:39:06.571Z,0.10
2022-11-19T20:41:52.318Z,0.23
2022-11-19T20:44:23.093Z,0.57
2022-11-19T20:46:51.045Z,0.35
2022-11-19T20:49:20.598Z,0.30
2022-11-19T20:51:48.693Z,1.03
2022-11-19T20:54:21.374Z,0.40
2022-11-19T20:56:49.911Z,0.80
2022-11-19T20:59:18.125Z,0.47
2022-11-19T21:01:46.395Z,0.40
2022-11-19T21:04:14.264Z,0.50
2022-11-19T21:06:42.696Z,1.60
2022-11-19T21:09:10.633Z,0.50
2022-11-19T21:11:38.340Z,0.27
2022-11-19T21:14:06.144Z,0.17
2022-11-19T21:16:33.924Z,0.33
2022-11-19T21:19:01.659Z,0.40
2022-11-19T21:21:29.371Z,0.43
2022-11-19T21:24:00.097Z,0.90
2022-11-19T21:26:29.162Z,0.57
2022-11-19T21:28:59.179Z,0.40
2022-11-19T21:31:38.509Z,2.13
2022-11-19T21:34:14.904Z,0.43
2022-11-19T21:36:43.977Z,0.40
2022-11-19T21:39:13.885Z,0.10
2022-11-19T21:41:41.928Z,1.90
2022-11-19T21:44:10.255Z,0.70
2022-11-19T21:46:38.148Z,0.53
2022-11-19T21:49:06.303Z,1.17
2022-11-19T21:51:36.674Z,1.77
2022-11-19T21:54:04.364Z,0.20
2022-11-19T21:56:38.258Z,0.20
2022-11-19T21:59:07.760Z,0.07
2022-11-19T22:01:35.661Z,0.10
2022-11-19T22:04:03.950Z,0.17
2022-11-19T22:06:32.846Z,0.00
2022-11-19T22:09:00.609Z,0.17
2022-11-19T22:11:31.724Z,0.33
2022-11-19T22:14:01.510Z,0.10
2022-11-19T22:16:30.102Z,0.30
2022-11-19T22:18:57.821Z,0.30
2022-11-19T22:21:27.125Z,0.27
2022-11-19T22:23:58.031Z,0.73
2022-11-19T22:26:26.768Z,0.60
2022-11-19T22:28:54.907Z,1.23
2022-11-19T22:31:23.056Z,0.37
2022-11-19T22:33:52.113Z,0.50
2022-11-19T22:36:21.593Z,0.20
2022-11-19T22:38:49.897Z,0.53
2022-11-19T22:41:19.782Z,0.30
2022-11-19T22:43:47.828Z,0.10
2022-11-19T22:46:16.417Z,0.00
2022-11-19T22:48:44.583Z,0.20
2022-11-19T22:51:19.016Z,0.20
2022-11-19T22:53:47.361Z,0.47
2022-11-19T22:56:19.844Z,0.10
2022-11-19T22:58:48.447Z,0.10
2022-11-19T23:01:48.750Z,0.30
2022-11-19T23:04:16.759Z,0.13
2022-11-19T23:06:44.547Z,0.03
2022-11-19T23:09:12.265Z,0.10
2022-11-19T23:11:57.452Z,0.10
2022-11-19T23:14:25.488Z,0.50
2022-11-19T23:16:53.550Z,0.27
2022-11-19T23:19:21.504Z,0.10
2022-11-19T23:21:49.526Z,0.40
2022-11-19T23:24:17.386Z,0.50
2022-11-19T23:26:45.135Z,1.27
2022-11-19T23:29:12.827Z,0.30
2022-11-19T23:31:41.576Z,0.20
2022-11-19T23:34:09.688Z,2.30
2022-11-19T23:36:40.088Z,0.20
2022-11-19T23:39:11.183Z,0.50
2022-11-19T23:41:38.864Z,0.10
2022-11-19T23:44:06.617Z,0.10
2022-11-19T23:46:36.112Z,0.37
2022-11-19T23:49:05.416Z,0.40
2022-11-19T23:51:40.212Z,0.67
2022-11-19T23:54:08.373Z,1.47
2022-11-19T23:56:36.912Z,1.83
2022-11-19T23:59:06.314Z,0.60
